sensor_id;sensor_type;location;lat;lon;timestamp;pressure;altitude;pressure_sealevel;temperature;humidity
57779;BME280;43608;49.486;9.640;2022-07-23T00:00:01;98595.81;;;21.06;67.43
57779;BME280;43608;49.486;9.640;2022-07-23T00:00:32;98570.53;;;20.90;67.45
57779;BME280;43608;49.486;9.640;2022-07-23T00:01:03;98600.25;;;21.07;67.20
57779;BME280;43608;49.486;9.640;2022-07-23T00:01:33;98600.25;;;21.07;67.43
57779;BME280;43608;49.486;9.640;2022-07-23T00:02:04;98605.63;;;21.07;67.36
57779;BME280;43608;49.486;9.640;2022-07-23T00:02:36;98596.09;;;21.00;67.24
57779;BME280;43608;49.486;9.640;2022-07-23T00:03:07;98608.41;;;21.06;67.06
57779;BME280;43608;49.486;9.640;2022-07-23T00:03:37;98593.56;;;20.97;67.07
57779;BME280;43608;49.486;9.640;2022-07-23T00:04:07;98603.16;;;21.03;67.38
57779;BME280;43608;49.486;9.640;2022-07-23T00:04:38;98589.09;;;20.96;67.22
57779;BME280;43608;49.486;9.640;2022-07-23T00:05:09;98590.00;;;20.96;67.52
57779;BME280;43608;49.486;9.640;2022-07-23T00:05:40;98603.97;;;21.05;67.26
57779;BME280;43608;49.486;9.640;2022-07-23T00:06:10;98591.50;;;21.02;67.54
57779;BME280;43608;49.486;9.640;2022-07-23T00:06:41;98603.09;;;21.04;67.43
57779;BME280;43608;49.486;9.640;2022-07-23T00:07:11;98578.41;;;20.94;67.32
57779;BME280;43608;49.486;9.640;2022-07-23T00:07:42;98595.03;;;21.04;67.53
57779;BME280;43608;49.486;9.640;2022-07-23T00:08:12;98602.28;;;21.02;67.26
57779;BME280;43608;49.486;9.640;2022-07-23T00:08:43;98585.56;;;20.95;67.25
57779;BME280;43608;49.486;9.640;2022-07-23T00:09:13;98575.94;;;20.90;67.23
57779;BME280;43608;49.486;9.640;2022-07-23T00:09:44;98589.63;;;21.04;67.51
57779;BME280;43608;49.486;9.640;2022-07-23T00:10:14;98583.63;;;20.98;67.65
57779;BME280;43608;49.486;9.640;2022-07-23T00:10:45;98594.13;;;21.04;67.39
57779;BME280;43608;49.486;9.640;2022-07-23T00:11:15;98578.56;;;20.91;67.61
57779;BME280;43608;49.486;9.640;2022-07-23T00:11:46;98569.84;;;20.86;67.25
57779;BME280;43608;49.486;9.640;2022-07-23T00:12:16;98595.97;;;21.03;67.69
57779;BME280;43608;49.486;9.640;2022-07-23T00:12:47;98590.69;;;21.00;67.30
57779;BME280;43608;49.486;9.640;2022-07-23T00:13:17;98535.56;;;20.71;67.83
57779;BME280;43608;49.486;9.640;2022-07-23T00:13:48;98597.75;;;21.03;67.93
57779;BME280;43608;49.486;9.640;2022-07-23T00:14:18;98580.09;;;20.97;67.58
57779;BME280;43608;49.486;9.640;2022-07-23T00:14:49;98594.22;;;21.02;67.26
57779;BME280;43608;49.486;9.640;2022-07-23T00:15:19;98576.81;;;20.90;67.35
57779;BME280;43608;49.486;9.640;2022-07-23T00:15:49;98595.06;;;21.03;67.40
57779;BME280;43608;49.486;9.640;2022-07-23T00:16:20;98573.31;;;20.88;67.58
57779;BME280;43608;49.486;9.640;2022-07-23T00:16:50;98581.19;;;20.93;67.46
57779;BME280;43608;49.486;9.640;2022-07-23T00:17:21;98603.09;;;21.04;67.45
57779;BME280;43608;49.486;9.640;2022-07-23T00:17:51;98596.91;;;21.02;67.63
57779;BME280;43608;49.486;9.640;2022-07-23T00:18:22;98603.03;;;21.06;67.52
57779;BME280;43608;49.486;9.640;2022-07-23T00:18:52;98598.56;;;21.05;67.63
57779;BME280;43608;49.486;9.640;2022-07-23T00:19:23;98599.53;;;21.04;67.58
57779;BME280;43608;49.486;9.640;2022-07-23T00:19:53;98600.41;;;21.04;67.63
57779;BME280;43608;49.486;9.640;2022-07-23T00:20:24;98598.66;;;21.03;67.44
57779;BME280;43608;49.486;9.640;2022-07-23T00:20:54;98595.38;;;20.96;67.64
57779;BME280;43608;49.486;9.640;2022-07-23T00:21:25;98593.41;;;21.00;67.61
57779;BME280;43608;49.486;9.640;2022-07-23T00:21:55;98603.22;;;21.01;67.86
57779;BME280;43608;49.486;9.640;2022-07-23T00:22:26;98589.19;;;20.94;67.86
57779;BME280;43608;49.486;9.640;2022-07-23T00:22:57;98575.28;;;20.85;67.76
57779;BME280;43608;49.486;9.640;2022-07-23T00:23:28;98599.75;;;20.99;67.65
57779;BME280;43608;49.486;9.640;2022-07-23T00:23:59;98588.38;;;20.92;67.89
57779;BME280;43608;49.486;9.640;2022-07-23T00:24:29;98597.13;;;20.98;67.72
57779;BME280;43608;49.486;9.640;2022-07-23T00:25:00;98572.75;;;20.82;67.80
57779;BME280;43608;49.486;9.640;2022-07-23T00:25:30;98594.56;;;20.94;68.09
57779;BME280;43608;49.486;9.640;2022-07-23T00:26:00;98565.69;;;20.79;67.87
57779;BME280;43608;49.486;9.640;2022-07-23T00:26:31;98573.63;;;20.82;68.08
57779;BME280;43608;49.486;9.640;2022-07-23T00:27:01;98563.16;;;20.76;67.88
57779;BME280;43608;49.486;9.640;2022-07-23T00:27:32;98590.22;;;20.92;67.97
57779;BME280;43608;49.486;9.640;2022-07-23T00:28:03;98588.47;;;20.91;67.89
57779;BME280;43608;49.486;9.640;2022-07-23T00:28:34;98571.97;;;20.79;67.98
57779;BME280;43608;49.486;9.640;2022-07-23T00:29:05;98570.28;;;20.77;68.01
57779;BME280;43608;49.486;9.640;2022-07-23T00:29:35;98565.91;;;20.74;68.13
57779;BME280;43608;49.486;9.640;2022-07-23T00:30:06;98584.16;;;20.87;68.22
57779;BME280;43608;49.486;9.640;2022-07-23T00:30:37;98585.09;;;20.86;68.01
57779;BME280;43608;49.486;9.640;2022-07-23T00:31:08;98583.34;;;20.85;68.34
57779;BME280;43608;49.486;9.640;2022-07-23T00:31:38;98580.75;;;20.83;68.04
57779;BME280;43608;49.486;9.640;2022-07-23T00:32:08;98577.19;;;20.83;68.33
57779;BME280;43608;49.486;9.640;2022-07-23T00:32:51;98568.38;;;20.79;68.48
57779;BME280;43608;49.486;9.640;2022-07-23T00:33:22;98545.78;;;20.62;68.52
57779;BME280;43608;49.486;9.640;2022-07-23T00:33:52;98572.00;;;20.78;68.41
57779;BME280;43608;49.486;9.640;2022-07-23T00:34:26;98542.13;;;20.63;68.59
57779;BME280;43608;49.486;9.640;2022-07-23T00:34:57;98551.91;;;20.66;68.44
57779;BME280;43608;49.486;9.640;2022-07-23T00:35:30;98534.22;;;20.60;68.35
57779;BME280;43608;49.486;9.640;2022-07-23T00:36:01;98545.50;;;20.69;68.68
57779;BME280;43608;49.486;9.640;2022-07-23T00:36:32;98563.22;;;20.74;68.65
57779;BME280;43608;49.486;9.640;2022-07-23T00:37:02;98550.00;;;20.68;68.70
57779;BME280;43608;49.486;9.640;2022-07-23T00:37:33;98531.72;;;20.56;68.62
57779;BME280;43608;49.486;9.640;2022-07-23T00:38:03;98542.22;;;20.62;68.66
57779;BME280;43608;49.486;9.640;2022-07-23T00:38:34;98508.97;;;20.44;68.55
57779;BME280;43608;49.486;9.640;2022-07-23T00:39:05;98557.97;;;20.71;68.99
57779;BME280;43608;49.486;9.640;2022-07-23T00:39:35;98558.91;;;20.70;68.79
57779;BME280;43608;49.486;9.640;2022-07-23T00:40:06;98549.28;;;20.64;68.95
57779;BME280;43608;49.486;9.640;2022-07-23T00:40:38;98547.41;;;20.67;68.80
57779;BME280;43608;49.486;9.640;2022-07-23T00:41:08;98528.19;;;20.55;69.20
57779;BME280;43608;49.486;9.640;2022-07-23T00:41:39;98545.78;;;20.62;68.80
57779;BME280;43608;49.486;9.640;2022-07-23T00:42:09;98527.16;;;20.58;69.21
57779;BME280;43608;49.486;9.640;2022-07-23T00:42:40;98534.31;;;20.59;69.06
57779;BME280;43608;49.486;9.640;2022-07-23T00:43:10;98542.97;;;20.66;68.86
57779;BME280;43608;49.486;9.640;2022-07-23T00:43:41;98522.63;;;20.58;68.93
57779;BME280;43608;49.486;9.640;2022-07-23T00:44:46;98528.69;;;20.63;69.23
57779;BME280;43608;49.486;9.640;2022-07-23T00:45:17;98520.88;;;20.57;69.15
57779;BME280;43608;49.486;9.640;2022-07-23T00:45:47;98523.44;;;20.60;69.44
57779;BME280;43608;49.486;9.640;2022-07-23T00:46:19;98523.75;;;20.54;69.10
57779;BME280;43608;49.486;9.640;2022-07-23T00:46:55;98534.97;;;20.64;69.15
57779;BME280;43608;49.486;9.640;2022-07-23T00:47:26;98534.31;;;20.59;69.18
57779;BME280;43608;49.486;9.640;2022-07-23T00:47:57;98534.06;;;20.63;69.17
57779;BME280;43608;49.486;9.640;2022-07-23T00:48:27;98533.28;;;20.61;69.04
57779;BME280;43608;49.486;9.640;2022-07-23T00:48:57;98539.53;;;20.62;69.31
57779;BME280;43608;49.486;9.640;2022-07-23T00:49:29;98529.84;;;20.58;69.10
57779;BME280;43608;49.486;9.640;2022-07-23T00:50:00;98515.00;;;20.49;69.36
57779;BME280;43608;49.486;9.640;2022-07-23T00:50:30;98532.47;;;20.59;69.09
57779;BME280;43608;49.486;9.640;2022-07-23T00:51:01;98503.88;;;20.38;69.14
57779;BME280;43608;49.486;9.640;2022-07-23T00:51:31;98540.63;;;20.58;69.31
57779;BME280;43608;49.486;9.640;2022-07-23T00:52:02;98536.19;;;20.57;69.18
57779;BME280;43608;49.486;9.640;2022-07-23T00:52:34;98525.03;;;20.45;69.23
57779;BME280;43608;49.486;9.640;2022-07-23T00:53:05;98527.72;;;20.45;69.31
57779;BME280;43608;49.486;9.640;2022-07-23T00:53:36;98536.47;;;20.51;69.60
57779;BME280;43608;49.486;9.640;2022-07-23T00:54:07;98544.50;;;20.52;69.62
57779;BME280;43608;49.486;9.640;2022-07-23T00:54:38;98539.22;;;20.49;69.59
57779;BME280;43608;49.486;9.640;2022-07-23T00:55:09;98545.34;;;20.53;69.64
57779;BME280;43608;49.486;9.640;2022-07-23T00:55:40;98523.59;;;20.38;69.75
57779;BME280;43608;49.486;9.640;2022-07-23T00:56:11;98495.44;;;20.26;69.71
57779;BME280;43608;49.486;9.640;2022-07-23T00:56:45;98549.00;;;20.52;69.76
57779;BME280;43608;49.486;9.640;2022-07-23T00:57:16;98512.31;;;20.30;69.73
57779;BME280;43608;49.486;9.640;2022-07-23T00:57:47;98537.56;;;20.46;69.69
57779;BME280;43608;49.486;9.640;2022-07-23T00:58:18;98534.88;;;20.46;69.57
57779;BME280;43608;49.486;9.640;2022-07-23T00:58:49;98533.78;;;20.51;69.73
57779;BME280;43608;49.486;9.640;2022-07-23T00:59:19;98533.78;;;20.51;69.57
57779;BME280;43608;49.486;9.640;2022-07-23T00:59:50;98534.78;;;20.48;69.56
57779;BME280;43608;49.486;9.640;2022-07-23T01:00:21;98523.53;;;20.40;69.78
57779;BME280;43608;49.486;9.640;2022-07-23T01:00:51;98538.38;;;20.49;69.93
57779;BME280;43608;49.486;9.640;2022-07-23T01:01:22;98533.13;;;20.45;69.83
57779;BME280;43608;49.486;9.640;2022-07-23T01:01:52;98517.63;;;20.32;69.83
57779;BME280;43608;49.486;9.640;2022-07-23T01:02:24;98542.09;;;20.46;70.03
57779;BME280;43608;49.486;9.640;2022-07-23T01:02:54;98532.34;;;20.43;69.77
57779;BME280;43608;49.486;9.640;2022-07-23T01:03:25;98539.47;;;20.44;69.81
57779;BME280;43608;49.486;9.640;2022-07-23T01:03:55;98543.09;;;20.43;69.87
57779;BME280;43608;49.486;9.640;2022-07-23T01:04:25;98539.50;;;20.43;70.00
57779;BME280;43608;49.486;9.640;2022-07-23T01:04:56;98527.38;;;20.34;69.75
57779;BME280;43608;49.486;9.640;2022-07-23T01:05:26;98540.53;;;20.40;70.07
57779;BME280;43608;49.486;9.640;2022-07-23T01:05:57;98527.50;;;20.31;70.15
57779;BME280;43608;49.486;9.640;2022-07-23T01:06:29;98531.88;;;20.34;70.22
57779;BME280;43608;49.486;9.640;2022-07-23T01:07:01;98516.25;;;20.23;69.95
57779;BME280;43608;49.486;9.640;2022-07-23T01:07:32;98513.63;;;20.21;70.33
57779;BME280;43608;49.486;9.640;2022-07-23T01:08:05;98534.66;;;20.32;70.33
57779;BME280;43608;49.486;9.640;2022-07-23T01:08:35;98532.03;;;20.30;70.18
57779;BME280;43608;49.486;9.640;2022-07-23T01:09:07;98537.25;;;20.34;70.67
57779;BME280;43608;49.486;9.640;2022-07-23T01:09:37;98541.72;;;20.35;70.27
57779;BME280;43608;49.486;9.640;2022-07-23T01:10:08;98528.59;;;20.27;70.36
57779;BME280;43608;49.486;9.640;2022-07-23T01:10:58;98540.88;;;20.33;70.67
57779;BME280;43608;49.486;9.640;2022-07-23T01:11:30;98539.16;;;20.32;70.78
57779;BME280;43608;49.486;9.640;2022-07-23T01:12:01;98505.00;;;20.13;70.41
57779;BME280;43608;49.486;9.640;2022-07-23T01:12:32;98523.22;;;20.27;70.49
57779;BME280;43608;49.486;9.640;2022-07-23T01:13:06;98539.22;;;20.30;70.68
57779;BME280;43608;49.486;9.640;2022-07-23T01:13:42;98513.03;;;20.14;70.61
57779;BME280;43608;49.486;9.640;2022-07-23T01:14:15;98537.50;;;20.29;70.34
57779;BME280;43608;49.486;9.640;2022-07-23T01:14:53;98533.91;;;20.28;70.74
57779;BME280;43608;49.486;9.640;2022-07-23T01:15:24;98467.44;;;19.92;70.79
57779;BME280;43608;49.486;9.640;2022-07-23T01:15:54;98530.44;;;20.26;70.58
57779;BME280;43608;49.486;9.640;2022-07-23T01:16:25;98504.31;;;20.09;70.57
57779;BME280;43608;49.486;9.640;2022-07-23T01:16:55;98533.13;;;20.26;70.62
57779;BME280;43608;49.486;9.640;2022-07-23T01:17:26;98515.72;;;20.14;70.62
57779;BME280;43608;49.486;9.640;2022-07-23T01:17:57;98543.81;;;20.28;70.65
57779;BME280;43608;49.486;9.640;2022-07-23T01:18:27;98543.00;;;20.26;70.68
57779;BME280;43608;49.486;9.640;2022-07-23T01:18:58;98538.72;;;20.22;70.61
57779;BME280;43608;49.486;9.640;2022-07-23T01:19:28;98522.91;;;20.14;70.50
57779;BME280;43608;49.486;9.640;2022-07-23T01:19:58;98542.22;;;20.24;70.46
57779;BME280;43608;49.486;9.640;2022-07-23T01:20:30;98506.25;;;20.06;70.69
57779;BME280;43608;49.486;9.640;2022-07-23T01:21:00;98523.19;;;20.08;70.54
57779;BME280;43608;49.486;9.640;2022-07-23T01:21:31;98526.69;;;20.10;70.84
57779;BME280;43608;49.486;9.640;2022-07-23T01:22:03;98550.28;;;20.24;70.52
57779;BME280;43608;49.486;9.640;2022-07-23T01:22:34;98541.53;;;20.19;70.80
57779;BME280;43608;49.486;9.640;2022-07-23T01:23:04;98554.84;;;20.22;70.47
57779;BME280;43608;49.486;9.640;2022-07-23T01:23:35;98552.22;;;20.20;70.60
57779;BME280;43608;49.486;9.640;2022-07-23T01:24:06;98533.94;;;20.08;70.96
57779;BME280;43608;49.486;9.640;2022-07-23T01:24:37;98547.13;;;20.14;70.95
57779;BME280;43608;49.486;9.640;2022-07-23T01:25:07;98551.38;;;20.20;70.97
57779;BME280;43608;49.486;9.640;2022-07-23T01:25:47;98534.03;;;20.06;70.89
57779;BME280;43608;49.486;9.640;2022-07-23T01:26:17;98557.53;;;20.22;70.59
57779;BME280;43608;49.486;9.640;2022-07-23T01:26:48;98548.81;;;20.17;70.86
57779;BME280;43608;49.486;9.640;2022-07-23T01:27:19;98545.09;;;20.19;70.95
57779;BME280;43608;49.486;9.640;2022-07-23T01:27:51;98521.59;;;20.04;70.87
57779;BME280;43608;49.486;9.640;2022-07-23T01:28:22;98552.22;;;20.20;70.82
57779;BME280;43608;49.486;9.640;2022-07-23T01:28:52;98541.53;;;20.19;70.94
57779;BME280;43608;49.486;9.640;2022-07-23T01:29:23;98541.81;;;20.12;70.79
57779;BME280;43608;49.486;9.640;2022-07-23T01:29:54;98545.44;;;20.11;70.87
57779;BME280;43608;49.486;9.640;2022-07-23T01:30:27;98526.19;;;20.02;70.79
57779;BME280;43608;49.486;9.640;2022-07-23T01:30:57;98528.72;;;20.05;71.02
57779;BME280;43608;49.486;9.640;2022-07-23T01:31:28;98525.16;;;20.04;71.24
57779;BME280;43608;49.486;9.640;2022-07-23T01:31:58;98533.94;;;20.08;71.17
57779;BME280;43608;49.486;9.640;2022-07-23T01:32:29;98532.16;;;20.08;71.08
57779;BME280;43608;49.486;9.640;2022-07-23T01:32:59;98543.56;;;20.13;71.02
57779;BME280;43608;49.486;9.640;2022-07-23T01:33:29;98538.28;;;20.12;71.00
57779;BME280;43608;49.486;9.640;2022-07-23T01:34:00;98526.09;;;20.03;71.12
57779;BME280;43608;49.486;9.640;2022-07-23T01:34:30;98542.69;;;20.13;70.91
57779;BME280;43608;49.486;9.640;2022-07-23T01:35:01;98532.00;;;20.11;71.18
57779;BME280;43608;49.486;9.640;2022-07-23T01:35:32;98513.00;;;19.95;71.02
57779;BME280;43608;49.486;9.640;2022-07-23T01:36:02;98534.84;;;20.08;71.06
57779;BME280;43608;49.486;9.640;2022-07-23T01:36:34;98536.44;;;20.12;71.43
57779;BME280;43608;49.486;9.640;2022-07-23T01:37:04;98527.84;;;20.04;71.00
57779;BME280;43608;49.486;9.640;2022-07-23T01:37:35;98540.97;;;20.12;71.08
57779;BME280;43608;49.486;9.640;2022-07-23T01:38:06;98539.22;;;20.11;71.09
57779;BME280;43608;49.486;9.640;2022-07-23T01:38:37;98541.91;;;20.11;71.24
57779;BME280;43608;49.486;9.640;2022-07-23T01:39:07;98541.91;;;20.11;71.15
57779;BME280;43608;49.486;9.640;2022-07-23T01:39:38;98540.22;;;20.08;71.31
57779;BME280;43608;49.486;9.640;2022-07-23T01:40:08;98543.03;;;20.05;71.06
57779;BME280;43608;49.486;9.640;2022-07-23T01:40:39;98545.53;;;20.10;71.30
57779;BME280;43608;49.486;9.640;2022-07-23T01:41:09;98539.47;;;20.05;71.33
57779;BME280;43608;49.486;9.640;2022-07-23T01:41:39;98547.41;;;20.08;71.34
57779;BME280;43608;49.486;9.640;2022-07-23T01:42:10;98539.47;;;20.05;71.23
57779;BME280;43608;49.486;9.640;2022-07-23T01:42:41;98537.66;;;20.05;71.30
57779;BME280;43608;49.486;9.640;2022-07-23T01:43:11;98522.09;;;19.93;71.27
57779;BME280;43608;49.486;9.640;2022-07-23T01:43:42;98503.75;;;19.80;71.51
57779;BME280;43608;49.486;9.640;2022-07-23T01:44:12;98546.69;;;20.04;71.31
57779;BME280;43608;49.486;9.640;2022-07-23T01:44:43;98550.25;;;20.05;71.58
57779;BME280;43608;49.486;9.640;2022-07-23T01:45:13;98524.78;;;19.93;71.34
57779;BME280;43608;49.486;9.640;2022-07-23T01:45:44;98532.69;;;19.96;71.62
57779;BME280;43608;49.486;9.640;2022-07-23T01:46:14;98545.06;;;20.00;71.15
57779;BME280;43608;49.486;9.640;2022-07-23T01:46:45;98528.31;;;19.93;71.38
57779;BME280;43608;49.486;9.640;2022-07-23T01:47:15;98544.03;;;20.03;71.70
57779;BME280;43608;49.486;9.640;2022-07-23T01:47:46;98520.47;;;19.89;71.72
57779;BME280;43608;49.486;9.640;2022-07-23T01:48:17;98531.91;;;19.94;71.82
57779;BME280;43608;49.486;9.640;2022-07-23T01:48:47;98540.56;;;20.01;71.59
57779;BME280;43608;49.486;9.640;2022-07-23T01:49:17;98521.22;;;19.92;71.99
57779;BME280;43608;49.486;9.640;2022-07-23T01:49:48;98536.03;;;20.01;71.72
57779;BME280;43608;49.486;9.640;2022-07-23T01:50:19;98543.25;;;20.01;72.06
57779;BME280;43608;49.486;9.640;2022-07-23T01:50:49;98516.09;;;19.86;71.87
57779;BME280;43608;49.486;9.640;2022-07-23T01:51:19;98512.47;;;19.87;71.87
57779;BME280;43608;49.486;9.640;2022-07-23T01:51:50;98534.53;;;19.95;72.23
57779;BME280;43608;49.486;9.640;2022-07-23T01:52:32;98520.66;;;19.84;71.97
57779;BME280;43608;49.486;9.640;2022-07-23T01:53:03;98532.84;;;19.93;71.97
57779;BME280;43608;49.486;9.640;2022-07-23T01:53:34;98535.47;;;19.94;71.75
57779;BME280;43608;49.486;9.640;2022-07-23T01:54:04;98535.38;;;19.96;71.96
57779;BME280;43608;49.486;9.640;2022-07-23T01:54:34;98536.28;;;19.96;71.84
57779;BME280;43608;49.486;9.640;2022-07-23T01:55:06;98533.59;;;19.96;72.14
57779;BME280;43608;49.486;9.640;2022-07-23T01:55:36;98516.97;;;19.87;71.95
57779;BME280;43608;49.486;9.640;2022-07-23T01:56:07;98524.78;;;19.93;72.23
57779;BME280;43608;49.486;9.640;2022-07-23T01:56:37;98526.59;;;19.92;72.08
57779;BME280;43608;49.486;9.640;2022-07-23T01:57:08;98524.97;;;19.88;72.37
57779;BME280;43608;49.486;9.640;2022-07-23T01:57:39;98533.84;;;19.90;72.43
57779;BME280;43608;49.486;9.640;2022-07-23T01:58:12;98501.41;;;19.73;72.26
57779;BME280;43608;49.486;9.640;2022-07-23T01:58:42;98509.44;;;19.74;72.54
57779;BME280;43608;49.486;9.640;2022-07-23T01:59:12;98522.44;;;19.85;72.35
57779;BME280;43608;49.486;9.640;2022-07-23T01:59:43;98534.00;;;19.87;72.33
57779;BME280;43608;49.486;9.640;2022-07-23T02:00:13;98515.47;;;19.79;72.53
57779;BME280;43608;49.486;9.640;2022-07-23T02:00:44;98505.78;;;19.75;72.39
57779;BME280;43608;49.486;9.640;2022-07-23T02:01:14;98514.50;;;19.82;72.51
57779;BME280;43608;49.486;9.640;2022-07-23T02:01:44;98519.81;;;19.84;72.43
57779;BME280;43608;49.486;9.640;2022-07-23T02:02:15;98523.28;;;19.86;72.28
57779;BME280;43608;49.486;9.640;2022-07-23T02:02:45;98525.13;;;19.85;72.42
57779;BME280;43608;49.486;9.640;2022-07-23T02:03:16;98513.91;;;19.74;72.18
57779;BME280;43608;49.486;9.640;2022-07-23T02:03:46;98535.00;;;19.85;72.15
57779;BME280;43608;49.486;9.640;2022-07-23T02:04:20;98535.94;;;19.84;72.37
57779;BME280;43608;49.486;9.640;2022-07-23T02:04:51;98519.28;;;19.74;72.29
57779;BME280;43608;49.486;9.640;2022-07-23T02:05:22;98526.25;;;19.79;72.38
57779;BME280;43608;49.486;9.640;2022-07-23T02:05:52;98525.25;;;19.82;72.43
57779;BME280;43608;49.486;9.640;2022-07-23T02:06:23;98524.59;;;19.75;72.36
57779;BME280;43608;49.486;9.640;2022-07-23T02:06:53;98530.66;;;19.80;72.32
57779;BME280;43608;49.486;9.640;2022-07-23T02:07:23;98528.97;;;19.78;72.48
57779;BME280;43608;49.486;9.640;2022-07-23T02:07:54;98534.31;;;19.79;72.58
57779;BME280;43608;49.486;9.640;2022-07-23T02:08:25;98528.97;;;19.78;72.57
57779;BME280;43608;49.486;9.640;2022-07-23T02:08:55;98511.66;;;19.64;72.50
57779;BME280;43608;49.486;9.640;2022-07-23T02:09:25;98476.69;;;19.44;72.82
57779;BME280;43608;49.486;9.640;2022-07-23T02:09:56;98524.56;;;19.77;72.68
57779;BME280;43608;49.486;9.640;2022-07-23T02:10:27;98520.38;;;19.70;72.79
57779;BME280;43608;49.486;9.640;2022-07-23T02:10:57;98532.66;;;19.75;72.61
57779;BME280;43608;49.486;9.640;2022-07-23T02:11:27;98528.31;;;19.73;72.73
57779;BME280;43608;49.486;9.640;2022-07-23T02:11:58;98460.19;;;19.33;72.45
57779;BME280;43608;49.486;9.640;2022-07-23T02:12:28;98534.50;;;19.75;72.59
57779;BME280;43608;49.486;9.640;2022-07-23T02:12:59;98533.63;;;19.74;72.66
57779;BME280;43608;49.486;9.640;2022-07-23T02:13:30;98531.00;;;19.73;72.95
57779;BME280;43608;49.486;9.640;2022-07-23T02:14:00;98533.69;;;19.73;72.68
57779;BME280;43608;49.486;9.640;2022-07-23T02:14:30;98513.59;;;19.61;72.92
57779;BME280;43608;49.486;9.640;2022-07-23T02:15:01;98495.06;;;19.55;72.96
57779;BME280;43608;49.486;9.640;2022-07-23T02:15:32;98528.38;;;19.71;72.89
57779;BME280;43608;49.486;9.640;2022-07-23T02:16:03;98513.53;;;19.62;72.77
57779;BME280;43608;49.486;9.640;2022-07-23T02:16:33;98524.81;;;19.71;72.88
57779;BME280;43608;49.486;9.640;2022-07-23T02:17:04;98519.56;;;19.68;72.57
57779;BME280;43608;49.486;9.640;2022-07-23T02:17:34;98489.94;;;19.48;72.68
57779;BME280;43608;49.486;9.640;2022-07-23T02:18:04;98521.31;;;19.69;72.85
57779;BME280;43608;49.486;9.640;2022-07-23T02:18:35;98504.81;;;19.57;72.63
57779;BME280;43608;49.486;9.640;2022-07-23T02:19:05;98502.13;;;19.57;73.03
57779;BME280;43608;49.486;9.640;2022-07-23T02:19:36;98488.34;;;19.44;73.01
57779;BME280;43608;49.486;9.640;2022-07-23T02:20:07;98498.88;;;19.49;72.92
57779;BME280;43608;49.486;9.640;2022-07-23T02:20:38;98506.69;;;19.55;72.92
57779;BME280;43608;49.486;9.640;2022-07-23T02:21:09;98529.53;;;19.65;73.00
57779;BME280;43608;49.486;9.640;2022-07-23T02:21:40;98498.88;;;19.49;72.90
57779;BME280;43608;49.486;9.640;2022-07-23T02:22:10;98505.59;;;19.59;72.83
57779;BME280;43608;49.486;9.640;2022-07-23T02:22:41;98517.09;;;19.63;72.96
57779;BME280;43608;49.486;9.640;2022-07-23T02:23:11;98529.53;;;19.65;73.16
57779;BME280;43608;49.486;9.640;2022-07-23T02:23:42;98534.03;;;19.65;72.86
57779;BME280;43608;49.486;9.640;2022-07-23T02:24:12;98529.53;;;19.65;73.02
57779;BME280;43608;49.486;9.640;2022-07-23T02:24:42;98523.28;;;19.65;72.95
57779;BME280;43608;49.486;9.640;2022-07-23T02:25:13;98510.19;;;19.57;72.99
57779;BME280;43608;49.486;9.640;2022-07-23T02:25:43;98519.78;;;19.63;73.17
57779;BME280;43608;49.486;9.640;2022-07-23T02:26:14;98510.97;;;19.59;72.87
57779;BME280;43608;49.486;9.640;2022-07-23T02:26:44;98518.91;;;19.62;72.87
57779;BME280;43608;49.486;9.640;2022-07-23T02:27:14;98523.34;;;19.63;73.11
57779;BME280;43608;49.486;9.640;2022-07-23T02:27:45;98522.47;;;19.63;72.92
57779;BME280;43608;49.486;9.640;2022-07-23T02:28:15;98505.94;;;19.52;73.15
57779;BME280;43608;49.486;9.640;2022-07-23T02:28:46;98511.97;;;19.57;73.08
57779;BME280;43608;49.486;9.640;2022-07-23T02:29:16;98487.53;;;19.42;73.33
57779;BME280;43608;49.486;9.640;2022-07-23T02:29:47;98515.41;;;19.60;73.22
57779;BME280;43608;49.486;9.640;2022-07-23T02:30:17;98499.81;;;19.48;73.24
57779;BME280;43608;49.486;9.640;2022-07-23T02:30:47;98514.75;;;19.55;73.11
57779;BME280;43608;49.486;9.640;2022-07-23T02:31:18;98516.81;;;19.48;73.16
57779;BME280;43608;49.486;9.640;2022-07-23T02:31:48;98514.81;;;19.54;73.22
57779;BME280;43608;49.486;9.640;2022-07-23T02:32:19;98520.13;;;19.55;73.30
57779;BME280;43608;49.486;9.640;2022-07-23T02:32:51;98519.25;;;19.55;73.34
57779;BME280;43608;49.486;9.640;2022-07-23T02:33:21;98493.91;;;19.40;73.45
57779;BME280;43608;49.486;9.640;2022-07-23T02:33:52;98488.69;;;19.37;73.64
57779;BME280;43608;49.486;9.640;2022-07-23T02:34:22;98519.59;;;19.47;73.45
57779;BME280;43608;49.486;9.640;2022-07-23T02:34:52;98524.75;;;19.52;73.45
57779;BME280;43608;49.486;9.640;2022-07-23T02:35:23;98504.59;;;19.41;73.75
57779;BME280;43608;49.486;9.640;2022-07-23T02:35:53;98503.66;;;19.42;73.73
57779;BME280;43608;49.486;9.640;2022-07-23T02:36:24;98522.19;;;19.48;73.81
57779;BME280;43608;49.486;9.640;2022-07-23T02:36:54;98516.81;;;19.48;73.80
57779;BME280;43608;49.486;9.640;2022-07-23T02:37:24;98508.94;;;19.44;73.79
57779;BME280;43608;49.486;9.640;2022-07-23T02:37:55;98501.91;;;19.41;73.76
57779;BME280;43608;49.486;9.640;2022-07-23T02:38:26;98506.34;;;19.42;73.98
57779;BME280;43608;49.486;9.640;2022-07-23T02:38:56;98503.78;;;19.39;73.67
57779;BME280;43608;49.486;9.640;2022-07-23T02:39:27;98506.25;;;19.44;74.08
57779;BME280;43608;49.486;9.640;2022-07-23T02:39:57;98505.47;;;19.42;74.07
57779;BME280;43608;49.486;9.640;2022-07-23T02:40:30;98477.50;;;19.25;73.95
57779;BME280;43608;49.486;9.640;2022-07-23T02:41:01;98485.38;;;19.30;74.11
57779;BME280;43608;49.486;9.640;2022-07-23T02:41:31;98485.38;;;19.30;73.96
57779;BME280;43608;49.486;9.640;2022-07-23T02:42:02;98496.84;;;19.34;74.13
57779;BME280;43608;49.486;9.640;2022-07-23T02:42:32;98506.34;;;19.42;74.05
57779;BME280;43608;49.486;9.640;2022-07-23T02:43:02;98509.97;;;19.41;74.26
57779;BME280;43608;49.486;9.640;2022-07-23T02:43:33;98500.22;;;19.39;73.88
57779;BME280;43608;49.486;9.640;2022-07-23T02:44:03;98502.81;;;19.40;73.88